Time;durP1;ratioP1;P1;durP2;ratioP2;P2;SDS_P1;SDS_P2;PMS_P1;PMS_P2;Temp;Humidity;BMP_temperature;BMP_pressure;BME280_temperature;BME280_humidity;BME280_pressure;Samples;Min_cycle;Max_cycle;Signal;HPM_P1;HPM_P2
2023/04/11 00:01:10;;;;;;;2.33;2.00;;;7.20;99.90;;;;;;4901869;28;90480;-32
2023/04/11 00:03:37;;;;;;;3.00;1.40;;;7.20;99.90;;;;;;4931539;22;88734;-35
2023/04/11 00:06:04;;;;;;;1.53;1.43;;;7.20;99.90;;;;;;4883443;28;88476;-33
2023/04/11 00:08:29;;;;;;;3.75;1.30;;;7.30;99.90;;;;;;4883278;28;88396;-30
2023/04/11 00:10:55;;;;;;;4.80;1.58;;;7.30;99.90;;;;;;4883089;28;89540;-34
2023/04/11 00:13:22;;;;;;;1.83;0.95;;;7.40;99.90;;;;;;4882284;28;89454;-32
2023/04/11 00:15:52;;;;;;;1.98;1.65;;;7.40;99.90;;;;;;4883254;28;88698;-33
2023/04/11 00:18:17;;;;;;;7.45;2.13;;;7.40;99.90;;;;;;4871349;28;88391;-33
2023/04/11 00:20:43;;;;;;;2.53;1.88;;;7.40;99.90;;;;;;4882802;28;90184;-31
2023/04/11 00:23:09;;;;;;;2.33;1.25;;;7.30;99.90;;;;;;4882224;28;91594;-31
2023/04/11 00:25:36;;;;;;;3.60;1.20;;;7.30;99.90;;;;;;4882728;28;89127;-34
2023/04/11 00:28:01;;;;;;;2.05;0.88;;;7.40;99.90;;;;;;4870525;28;87672;-33
2023/04/11 00:30:27;;;;;;;4.95;1.48;;;7.40;99.90;;;;;;4883470;28;91313;-33
2023/04/11 00:32:52;;;;;;;2.50;1.00;;;7.40;99.90;;;;;;4885486;28;90094;-32
2023/04/11 00:35:18;;;;;;;5.80;1.77;;;7.30;99.90;;;;;;4886224;28;90443;-32
2023/04/11 00:37:44;;;;;;;3.33;1.10;;;7.30;99.90;;;;;;4885290;28;89115;-30
2023/04/11 00:40:13;;;;;;;2.97;1.70;;;7.30;99.90;;;;;;4886721;28;89537;-29
2023/04/11 00:42:39;;;;;;;2.58;1.42;;;7.30;99.90;;;;;;4886008;28;89719;-34
2023/04/11 00:45:05;;;;;;;3.47;1.52;;;7.30;99.90;;;;;;4886230;28;89148;-31
2023/04/11 00:47:31;;;;;;;3.30;1.80;;;7.30;99.90;;;;;;4885723;28;90055;-31
2023/04/11 00:49:57;;;;;;;4.18;1.67;;;7.20;99.90;;;;;;4885749;28;91340;-32
2023/04/11 00:52:23;;;;;;;1.25;0.90;;;7.10;99.90;;;;;;4883976;28;89704;-30
2023/04/11 00:54:49;;;;;;;2.80;1.63;;;7.10;99.90;;;;;;4885066;28;89510;-31
2023/04/11 00:57:15;;;;;;;1.60;1.00;;;7.10;99.90;;;;;;4884582;28;88474;-33
2023/04/11 00:59:42;;;;;;;3.17;1.88;;;7.10;99.90;;;;;;4883629;28;90736;-29
2023/04/11 01:02:08;;;;;;;7.20;1.60;;;7.00;99.90;;;;;;4872011;28;90569;-30
2023/04/11 01:04:33;;;;;;;3.03;1.75;;;7.00;99.90;;;;;;4883834;28;90595;-30
2023/04/11 01:07:07;;;;;;;4.60;2.13;;;7.00;99.90;;;;;;4884965;28;88711;-31
2023/04/11 01:09:35;;;;;;;3.40;1.65;;;7.00;99.90;;;;;;4883837;28;90804;-31
2023/04/11 01:12:02;;;;;;;3.00;2.03;;;6.90;99.90;;;;;;4883719;28;89641;-35
2023/04/11 01:14:28;;;;;;;2.65;1.65;;;6.90;99.90;;;;;;4884119;28;89567;-30
2023/04/11 01:16:55;;;;;;;3.03;1.88;;;6.80;99.90;;;;;;4884083;28;89891;-31
2023/04/11 01:19:24;;;;;;;7.43;2.45;;;6.80;99.90;;;;;;4884139;28;89878;-32
2023/04/11 01:21:51;;;;;;;3.03;1.13;;;6.80;99.90;;;;;;4884247;28;89671;-33
2023/04/11 01:24:17;;;;;;;2.13;1.92;;;6.80;99.90;;;;;;4884101;28;89578;-32
2023/04/11 01:26:43;;;;;;;2.65;1.58;;;6.80;99.90;;;;;;4883474;28;88545;-31
2023/04/11 01:29:09;;;;;;;1.50;1.40;;;6.70;99.90;;;;;;4884051;28;90013;-35
2023/04/11 01:31:34;;;;;;;3.35;2.22;;;6.80;99.90;;;;;;4884083;28;89371;-32
2023/04/11 01:34:01;;;;;;;2.83;1.92;;;6.80;99.90;;;;;;4882623;28;89372;-34
2023/04/11 01:36:28;;;;;;;1.98;1.80;;;6.80;99.90;;;;;;4884352;28;89373;-30
2023/04/11 01:38:54;;;;;;;2.60;2.05;;;6.80;99.90;;;;;;4883118;28;90102;-33
2023/04/11 01:41:21;;;;;;;8.43;2.55;;;6.80;99.90;;;;;;4883661;28;89282;-31
2023/04/11 01:43:47;;;;;;;7.80;2.85;;;6.80;99.90;;;;;;4882792;28;90240;-31
2023/04/11 01:46:14;;;;;;;10.23;3.28;;;6.80;99.90;;;;;;4883554;28;89322;-32
2023/04/11 01:48:40;;;;;;;7.65;3.97;;;6.80;99.90;;;;;;4882735;28;90500;-36
2023/04/11 01:51:06;;;;;;;6.85;4.13;;;6.80;99.90;;;;;;4883780;28;90764;-34
2023/04/11 01:53:32;;;;;;;7.65;4.45;;;6.70;99.90;;;;;;4883281;28;90041;-34
2023/04/11 01:55:57;;;;;;;8.80;5.10;;;6.80;99.90;;;;;;4883038;28;87888;-31
2023/04/11 01:58:23;;;;;;;5.22;3.85;;;6.80;99.90;;;;;;4883009;28;91802;-31
2023/04/11 02:00:49;;;;;;;6.57;3.65;;;6.70;99.90;;;;;;4882964;28;90391;-31
2023/04/11 02:03:16;;;;;;;5.63;3.80;;;6.80;99.90;;;;;;4883505;28;89688;-34
2023/04/11 02:05:42;;;;;;;8.50;4.05;;;6.70;99.90;;;;;;4883452;28;88324;-31
2023/04/11 02:08:07;;;;;;;11.10;4.63;;;6.70;99.90;;;;;;4883711;28;90046;-34
2023/04/11 02:10:33;;;;;;;11.55;5.00;;;6.70;99.90;;;;;;4883984;28;89157;-30
2023/04/11 02:12:58;;;;;;;8.43;3.83;;;6.70;99.90;;;;;;4882462;28;90887;-31
2023/04/11 02:15:24;;;;;;;11.20;3.58;;;6.70;99.90;;;;;;4883759;28;89855;-31
2023/04/11 02:17:52;;;;;;;9.90;3.65;;;6.60;99.90;;;;;;4882403;28;90340;-32
2023/04/11 02:20:20;;;;;;;9.23;3.75;;;6.60;99.90;;;;;;4883443;28;89338;-31
2023/04/11 02:22:46;;;;;;;10.13;5.17;;;6.60;99.90;;;;;;4882811;28;89308;-31
2023/04/11 02:25:11;;;;;;;4.43;3.15;;;6.60;99.90;;;;;;4884138;28;88253;-30
2023/04/11 02:27:37;;;;;;;8.43;3.83;;;6.70;99.90;;;;;;4882564;28;90248;-32
2023/04/11 02:30:04;;;;;;;5.57;3.58;;;6.60;99.90;;;;;;4882629;28;89456;-32
2023/04/11 02:32:36;;;;;;;5.40;4.05;;;6.70;99.90;;;;;;4883683;28;89941;-33
2023/04/11 02:35:03;;;;;;;15.00;4.13;;;6.60;99.90;;;;;;4883645;28;87888;-33
2023/04/11 02:37:29;;;;;;;3.47;3.05;;;6.60;99.90;;;;;;4882607;28;91228;-32
2023/04/11 02:39:55;;;;;;;5.97;4.18;;;6.60;99.90;;;;;;4882527;28;90348;-32
2023/04/11 02:42:21;;;;;;;10.05;5.25;;;6.60;99.90;;;;;;4883190;28;90898;-30
2023/04/11 02:44:46;;;;;;;8.40;3.85;;;6.70;99.90;;;;;;4882935;28;89323;-33
2023/04/11 02:47:12;;;;;;;6.55;3.78;;;6.70;99.90;;;;;;4882683;28;90709;-32
2023/04/11 02:49:40;;;;;;;6.22;3.00;;;6.70;99.90;;;;;;4882616;28;89669;-30
2023/04/11 02:52:05;;;;;;;11.25;4.10;;;6.70;99.90;;;;;;4882688;28;89507;-30
2023/04/11 02:54:31;;;;;;;10.80;4.63;;;6.70;99.90;;;;;;4883451;28;88914;-31
2023/04/11 02:56:57;;;;;;;8.00;3.55;;;6.70;99.90;;;;;;4882300;28;90250;-31
2023/04/11 02:59:22;;;;;;;14.00;4.15;;;6.70;99.90;;;;;;4882884;28;88973;-33
2023/04/11 03:01:48;;;;;;;4.07;3.10;;;6.80;99.90;;;;;;4881851;28;89563;-32
2023/04/11 03:04:13;;;;;;;9.05;3.35;;;6.80;99.90;;;;;;4881733;28;89444;-33
2023/04/11 03:06:39;;;;;;;6.10;2.40;;;6.80;99.90;;;;;;4883300;28;89643;-33
2023/04/11 03:09:05;;;;;;;3.22;1.90;;;6.80;99.90;;;;;;4882640;28;88667;-31
2023/04/11 03:11:31;;;;;;;9.77;3.20;;;6.80;99.90;;;;;;4882218;28;89709;-31
2023/04/11 03:13:56;;;;;;;6.93;2.88;;;6.80;99.90;;;;;;4882175;28;88613;-34
2023/04/11 03:16:22;;;;;;;15.63;4.00;;;6.90;99.90;;;;;;4882630;28;90515;-33
2023/04/11 03:18:48;;;;;;;3.50;2.47;;;6.80;99.90;;;;;;4882101;28;90502;-31
2023/04/11 03:21:13;;;;;;;7.18;3.10;;;6.80;99.90;;;;;;4882319;28;89062;-32
2023/04/11 03:23:39;;;;;;;4.88;3.05;;;6.80;99.90;;;;;;4883462;28;89393;-31
2023/04/11 03:26:05;;;;;;;8.77;4.47;;;6.80;99.90;;;;;;4881695;28;90587;-32
2023/04/11 03:28:31;;;;;;;10.25;3.00;;;6.80;99.90;;;;;;4881933;28;90647;-31
2023/04/11 03:30:56;;;;;;;8.43;3.72;;;6.80;99.90;;;;;;4881925;28;89829;-30
2023/04/11 03:33:22;;;;;;;18.48;5.78;;;6.90;99.90;;;;;;4882397;28;90416;-31
2023/04/11 03:35:47;;;;;;;13.00;4.95;;;6.80;99.90;;;;;;4882312;28;90027;-29
2023/04/11 03:38:13;;;;;;;9.73;3.47;;;6.90;99.90;;;;;;4881874;28;89498;-30
2023/04/11 03:40:39;;;;;;;6.63;3.20;;;6.90;99.90;;;;;;4881954;28;90513;-30
2023/04/11 03:43:05;;;;;;;16.35;5.18;;;6.90;99.90;;;;;;4881561;28;88067;-33
2023/04/11 03:45:31;;;;;;;13.77;4.63;;;6.90;99.90;;;;;;4882659;28;89982;-31
2023/04/11 03:47:57;;;;;;;6.05;3.60;;;6.90;99.90;;;;;;4881808;28;89936;-29
2023/04/11 03:50:22;;;;;;;10.77;4.10;;;6.90;99.90;;;;;;4881371;28;89691;-32
2023/04/11 03:52:48;;;;;;;7.72;4.47;;;7.00;99.90;;;;;;4881504;28;89480;-30
2023/04/11 03:55:14;;;;;;;11.32;5.72;;;6.90;99.90;;;;;;4881761;28;89905;-31
2023/04/11 03:57:39;;;;;;;6.38;3.45;;;7.00;99.90;;;;;;4882174;28;89278;-35
2023/04/11 04:00:06;;;;;;;14.05;6.55;;;7.00;99.90;;;;;;4881940;28;88986;-30
2023/04/11 04:02:32;;;;;;;15.85;4.25;;;7.00;99.90;;;;;;4881634;28;88019;-29
2023/04/11 04:04:57;;;;;;;15.82;5.40;;;7.00;99.90;;;;;;4880645;28;90254;-32
2023/04/11 04:07:27;;;;;;;13.82;4.15;;;7.10;99.90;;;;;;4881358;28;89672;-31
2023/04/11 04:09:53;;;;;;;13.88;4.70;;;7.10;99.90;;;;;;4880968;28;90084;-33
2023/04/11 04:12:20;;;;;;;9.20;3.75;;;7.10;99.90;;;;;;4881855;28;88195;-32
2023/04/11 04:14:46;;;;;;;10.13;3.90;;;7.20;99.90;;;;;;4881105;28;89426;-30
2023/04/11 04:17:13;;;;;;;11.10;4.38;;;7.20;99.90;;;;;;4880656;28;90492;-34
2023/04/11 04:19:39;;;;;;;9.13;3.40;;;7.20;99.90;;;;;;4881338;28;90502;-29
2023/04/11 04:22:10;;;;;;;7.25;3.50;;;7.20;99.90;;;;;;4881909;28;89761;-31
2023/04/11 04:24:40;;;;;;;13.75;5.35;;;7.20;99.90;;;;;;4881526;28;89240;-32
2023/04/11 04:27:09;;;;;;;10.30;4.40;;;7.20;99.90;;;;;;4881672;28;89375;-32
2023/04/11 04:29:45;;;;;;;9.95;4.05;;;7.30;99.90;;;;;;4881795;28;90380;-30
2023/04/11 04:32:13;;;;;;;13.98;4.03;;;7.20;99.90;;;;;;4882107;28;89144;-30
2023/04/11 04:34:48;;;;;;;14.07;3.77;;;7.30;99.90;;;;;;4881236;28;90459;-30
2023/04/11 04:37:20;;;;;;;5.40;2.75;;;7.30;99.90;;;;;;4881255;28;88888;-29
2023/04/11 04:40:07;;;;;;;12.15;3.85;;;7.30;99.90;;;;;;4880992;28;89873;-33
2023/04/11 04:42:35;;;;;;;7.00;3.65;;;7.30;99.90;;;;;;4881138;28;90104;-31
2023/04/11 04:45:01;;;;;;;11.98;3.05;;;7.30;99.90;;;;;;4881495;28;90360;-31
2023/04/11 04:47:35;;;;;;;7.28;3.55;;;7.40;99.90;;;;;;4880957;28;90482;-32
2023/04/11 04:50:00;;;;;;;9.45;3.75;;;7.40;99.90;;;;;;4881153;28;89361;-32
2023/04/11 04:52:27;;;;;;;5.15;2.95;;;7.40;99.90;;;;;;4880994;28;88779;-32
2023/04/11 04:54:57;;;;;;;5.40;2.90;;;7.40;99.90;;;;;;4880870;28;90375;-30
2023/04/11 04:57:24;;;;;;;7.32;3.22;;;7.40;99.90;;;;;;4881436;28;89573;-31
2023/04/11 04:59:49;;;;;;;4.80;2.83;;;7.40;99.90;;;;;;4881098;28;89683;-33
2023/04/11 05:02:16;;;;;;;7.22;2.28;;;7.40;99.90;;;;;;4881301;28;89048;-32
2023/04/11 05:04:43;;;;;;;6.63;3.28;;;7.50;99.90;;;;;;4880332;28;90561;-30
2023/04/11 05:07:09;;;;;;;7.13;2.90;;;7.50;99.90;;;;;;4880946;28;90621;-32
2023/04/11 05:09:35;;;;;;;6.10;2.45;;;7.50;99.90;;;;;;4880702;28;90423;-32
2023/04/11 05:12:01;;;;;;;9.40;2.65;;;7.50;99.90;;;;;;4880707;28;89825;-34
2023/04/11 05:14:27;;;;;;;5.82;3.33;;;7.40;99.90;;;;;;4880931;28;90116;-31
2023/04/11 05:16:52;;;;;;;8.85;3.08;;;7.40;99.90;;;;;;4880555;28;89138;-30
2023/04/11 05:19:18;;;;;;;8.00;3.28;;;7.50;99.90;;;;;;4882577;28;89895;-34
2023/04/11 05:21:43;;;;;;;4.00;3.03;;;7.50;99.90;;;;;;4883636;28;89003;-32
2023/04/11 05:24:09;;;;;;;9.23;3.45;;;7.50;99.90;;;;;;4884069;28;89962;-34
2023/04/11 05:26:35;;;;;;;9.02;2.88;;;7.50;99.90;;;;;;4883833;28;89648;-31
2023/04/11 05:29:00;;;;;;;5.00;2.50;;;7.50;99.90;;;;;;4883356;28;90054;-32
2023/04/11 05:31:26;;;;;;;8.05;3.45;;;7.50;99.90;;;;;;4884343;28;89690;-32
2023/04/11 05:33:52;;;;;;;6.28;3.08;;;7.50;99.90;;;;;;4883639;28;90066;-32
2023/04/11 05:36:17;;;;;;;9.30;2.78;;;7.50;99.90;;;;;;4883956;28;90272;-32
2023/04/11 05:38:44;;;;;;;5.40;3.13;;;7.60;99.90;;;;;;4883189;28;89786;-32
2023/04/11 05:41:10;;;;;;;10.32;3.38;;;7.60;99.90;;;;;;4884203;28;89573;-34
2023/04/11 05:43:36;;;;;;;6.57;3.03;;;7.60;99.90;;;;;;4884050;28;90061;-30
2023/04/11 05:46:06;;;;;;;5.47;3.00;;;7.60;99.90;;;;;;4882931;28;89180;-30
2023/04/11 05:48:32;;;;;;;5.38;3.10;;;7.60;99.90;;;;;;4883378;28;88694;-30
2023/04/11 05:50:58;;;;;;;9.57;2.70;;;7.60;99.90;;;;;;4883954;28;89428;-33
2023/04/11 05:53:24;;;;;;;11.07;2.97;;;7.60;99.90;;;;;;4884323;28;90312;-30
2023/04/11 05:55:49;;;;;;;7.32;2.20;;;7.60;99.90;;;;;;4883390;28;91650;-32
2023/04/11 05:58:15;;;;;;;4.03;3.13;;;7.60;99.90;;;;;;4883584;28;90539;-28
2023/04/11 06:00:41;;;;;;;9.73;3.42;;;7.60;99.90;;;;;;4883231;28;89235;-30
2023/04/11 06:03:08;;;;;;;6.47;3.25;;;7.60;99.90;;;;;;4883707;28;88869;-34
2023/04/11 06:05:34;;;;;;;3.90;2.30;;;7.60;99.90;;;;;;4883776;28;89795;-33
2023/04/11 06:08:04;;;;;;;3.92;2.15;;;7.70;99.90;;;;;;4883414;28;89408;-32
2023/04/11 06:10:30;;;;;;;7.57;4.57;;;7.70;99.90;;;;;;4883596;28;88880;-34
2023/04/11 06:12:56;;;;;;;6.78;2.75;;;7.70;99.90;;;;;;4883288;28;89886;-34
2023/04/11 06:15:23;;;;;;;6.55;2.10;;;7.70;99.90;;;;;;4883063;28;90054;-33
2023/04/11 06:17:49;;;;;;;2.53;2.30;;;7.70;99.90;;;;;;4882561;28;89726;-31
2023/04/11 06:20:15;;;;;;;17.80;3.63;;;7.80;99.90;;;;;;4883222;28;88947;-30
2023/04/11 06:22:42;;;;;;;6.20;2.28;;;7.80;99.90;;;;;;4882389;28;90177;-30
2023/04/11 06:25:08;;;;;;;8.40;2.55;;;7.80;99.90;;;;;;4882963;28;89639;-30
2023/04/11 06:27:34;;;;;;;3.55;2.20;;;7.80;99.90;;;;;;4882715;28;89437;-31
2023/04/11 06:30:00;;;;;;;10.32;3.25;;;7.80;99.90;;;;;;4882117;28;88316;-31
2023/04/11 06:32:26;;;;;;;10.15;2.63;;;7.80;99.90;;;;;;4883246;28;89115;-34
2023/04/11 06:34:51;;;;;;;4.45;2.47;;;7.90;99.90;;;;;;4882617;28;89436;-32
2023/04/11 06:37:17;;;;;;;7.95;4.05;;;7.90;99.90;;;;;;4881382;28;89863;-31
2023/04/11 06:39:43;;;;;;;3.97;2.30;;;7.90;99.90;;;;;;4882249;28;88617;-35
2023/04/11 06:42:08;;;;;;;9.40;2.33;;;8.00;99.90;;;;;;4881517;28;89523;-34
2023/04/11 06:44:35;;;;;;;6.05;2.58;;;8.00;99.90;;;;;;4882349;28;90316;-33
2023/04/11 06:47:00;;;;;;;8.15;2.65;;;8.00;99.90;;;;;;4882284;28;90562;-31
2023/04/11 06:49:30;;;;;;;6.22;2.80;;;8.10;99.90;;;;;;4882092;28;88108;-31
2023/04/11 06:51:56;;;;;;;9.27;3.65;;;8.10;99.90;;;;;;4881992;28;90585;-32
2023/04/11 06:54:22;;;;;;;3.53;2.17;;;8.10;99.90;;;;;;4881731;28;90193;-31
2023/04/11 06:56:50;;;;;;;12.73;3.97;;;8.10;99.90;;;;;;4882068;28;90129;-33
2023/04/11 06:59:20;;;;;;;7.18;3.05;;;8.10;99.90;;;;;;4882516;28;87907;-33
2023/04/11 07:01:46;;;;;;;5.22;3.03;;;8.10;99.90;;;;;;4881961;28;90653;-33
2023/04/11 07:04:11;;;;;;;12.70;2.65;;;8.20;99.90;;;;;;4882269;28;90179;-30
2023/04/11 07:06:37;;;;;;;7.63;3.30;;;8.20;99.90;;;;;;4882195;28;89601;-29
2023/04/11 07:09:03;;;;;;;9.30;2.25;;;8.20;99.90;;;;;;4880501;28;89464;-29
2023/04/11 07:11:29;;;;;;;3.42;2.30;;;8.20;99.90;;;;;;4882529;28;89844;-31
2023/04/11 07:13:56;;;;;;;3.05;1.98;;;8.20;99.90;;;;;;4881897;28;90043;-30
2023/04/11 07:16:22;;;;;;;8.82;4.18;;;8.10;99.90;;;;;;4881251;28;89628;-34
2023/04/11 07:18:47;;;;;;;4.03;2.58;;;8.20;99.90;;;;;;4882590;28;88858;-30
2023/04/11 07:21:14;;;;;;;16.48;3.25;;;8.20;99.90;;;;;;4880921;28;89201;-33
2023/04/11 07:23:40;;;;;;;9.77;2.58;;;8.20;99.90;;;;;;4882310;28;89512;-34
2023/04/11 07:26:10;;;;;;;13.48;2.75;;;8.30;99.90;;;;;;4882026;28;90107;-30
2023/04/11 07:28:40;;;;;;;5.93;2.92;;;8.30;99.90;;;;;;4883053;28;89631;-29
2023/04/11 07:31:09;;;;;;;13.80;3.53;;;8.40;99.90;;;;;;4882060;28;90235;-31
2023/04/11 07:33:38;;;;;;;4.18;3.05;;;8.40;99.90;;;;;;4881819;28;91102;-31
2023/04/11 07:36:05;;;;;;;6.82;2.22;;;8.70;99.90;;;;;;4881211;28;90829;-30
2023/04/11 07:38:32;;;;;;;3.95;2.60;;;8.90;99.90;;;;;;4882559;28;89115;-34
2023/04/11 07:41:01;;;;;;;9.93;3.10;;;8.80;99.90;;;;;;4881165;28;93352;-32
2023/04/11 07:43:28;;;;;;;11.00;2.88;;;8.80;99.90;;;;;;4882100;28;90098;-33
2023/04/11 07:45:55;;;;;;;6.78;2.85;;;8.80;99.90;;;;;;4881447;28;89184;-33
2023/04/11 07:48:22;;;;;;;5.45;3.08;;;8.70;99.90;;;;;;4882092;28;89186;-29
2023/04/11 07:50:47;;;;;;;4.95;2.78;;;8.70;99.90;;;;;;4881627;28;90151;-29
2023/04/11 07:53:13;;;;;;;3.80;2.47;;;8.80;99.90;;;;;;4881396;28;89235;-31
2023/04/11 07:55:39;;;;;;;8.40;2.70;;;8.80;99.90;;;;;;4881778;28;88822;-30
2023/04/11 07:58:05;;;;;;;8.75;2.75;;;8.90;99.90;;;;;;4881648;28;89975;-30
2023/04/11 08:00:32;;;;;;;10.10;3.10;;;8.90;99.90;;;;;;4881377;28;89476;-33
2023/04/11 08:03:08;;;;;;;5.95;3.15;;;8.90;99.90;;;;;;4881284;28;90390;-34
2023/04/11 08:05:35;;;;;;;8.77;2.53;;;9.00;99.90;;;;;;4881146;28;90020;-33
2023/04/11 08:08:05;;;;;;;7.85;3.55;;;9.00;99.90;;;;;;4881423;28;88490;-32
2023/04/11 08:10:31;;;;;;;7.72;3.03;;;9.10;99.90;;;;;;4881621;28;89341;-34
2023/04/11 08:12:57;;;;;;;8.07;2.85;;;9.20;99.90;;;;;;4880866;28;89756;-32
2023/04/11 08:15:23;;;;;;;7.38;3.42;;;9.20;99.90;;;;;;4881279;28;89735;-31
2023/04/11 08:17:48;;;;;;;4.43;2.45;;;9.30;99.90;;;;;;4880977;28;89518;-33
2023/04/11 08:20:15;;;;;;;9.52;2.72;;;9.40;99.90;;;;;;4881585;28;89915;-31
2023/04/11 08:22:43;;;;;;;11.30;2.83;;;9.40;99.90;;;;;;4880688;28;90763;-32
2023/04/11 08:25:11;;;;;;;7.70;2.17;;;9.70;99.90;;;;;;4881221;28;90476;-29
2023/04/11 08:27:37;;;;;;;11.93;3.87;;;9.80;99.90;;;;;;4880992;28;88807;-31
2023/04/11 08:30:05;;;;;;;6.25;2.45;;;9.80;99.90;;;;;;4881261;28;90289;-33
2023/04/11 08:32:31;;;;;;;4.90;2.38;;;9.90;99.90;;;;;;4881810;28;89341;-31
2023/04/11 08:34:56;;;;;;;7.50;2.75;;;10.00;99.90;;;;;;4881576;28;90167;-32
2023/04/11 08:37:22;;;;;;;4.45;2.30;;;10.10;99.90;;;;;;4879905;28;87719;-32
2023/04/11 08:39:48;;;;;;;3.67;1.92;;;10.40;99.90;;;;;;4880681;28;90357;-32
2023/04/11 08:42:38;;;;;;;5.00;2.42;;;10.70;99.90;;;;;;4881013;28;89706;-34
2023/04/11 08:45:07;;;;;;;6.55;2.95;;;11.10;99.90;;;;;;4880657;28;89402;-31
2023/04/11 08:47:33;;;;;;;6.80;3.00;;;11.60;99.90;;;;;;4880919;28;90093;-34
2023/04/11 08:49:59;;;;;;;6.88;3.40;;;11.40;99.90;;;;;;4880604;28;89882;-30
2023/04/11 08:52:25;;;;;;;4.28;2.33;;;10.70;99.90;;;;;;4882155;28;90917;-32
2023/04/11 08:54:55;;;;;;;5.28;2.25;;;10.90;99.90;;;;;;4883795;28;89724;-33
2023/04/11 08:57:30;;;;;;;9.57;3.22;;;11.30;99.90;;;;;;4884728;28;88833;-31
2023/04/11 09:00:35;;;;;;;7.72;2.40;;;11.50;99.90;;;;;;4883876;28;89081;-33
2023/04/11 09:03:02;;;;;;;13.85;1.88;;;11.80;99.90;;;;;;4883740;28;89548;-33
2023/04/11 09:05:37;;;;;;;4.97;2.00;;;12.10;99.90;;;;;;4884063;28;88811;-32
2023/04/11 09:08:16;;;;;;;5.82;1.95;;;12.20;99.90;;;;;;4883561;28;89642;-32
2023/04/11 09:10:45;;;;;;;5.97;2.90;;;12.10;99.90;;;;;;4884514;28;90689;-31
2023/04/11 09:13:24;;;;;;;5.15;2.63;;;12.30;99.90;;;;;;4883242;28;91066;-31
2023/04/11 09:16:11;;;;;;;9.80;2.90;;;12.50;99.90;;;;;;4879733;28;90978;-33
2023/04/11 09:18:41;;;;;;;3.85;2.15;;;11.90;99.90;;;;;;4882555;28;88954;-34
2023/04/11 09:21:10;;;;;;;3.95;2.42;;;12.10;99.90;;;;;;4883731;28;89852;-34
2023/04/11 09:23:36;;;;;;;4.18;1.83;;;12.40;99.90;;;;;;4883777;28;90062;-33
2023/04/11 09:26:05;;;;;;;6.15;2.20;;;12.60;99.90;;;;;;4882725;28;89264;-33
2023/04/11 09:28:41;;;;;;;2.15;1.88;;;12.50;99.90;;;;;;4884354;28;89505;-35
2023/04/11 09:31:08;;;;;;;16.48;3.33;;;12.30;99.90;;;;;;4883955;28;89695;-31
2023/04/11 09:33:34;;;;;;;10.85;3.15;;;12.50;99.90;;;;;;4883423;28;89713;-35
2023/04/11 09:36:01;;;;;;;5.43;1.83;;;12.90;99.90;;;;;;4883429;28;89217;-31
2023/04/11 09:38:32;;;;;;;3.63;1.92;;;12.30;99.90;;;;;;4884149;28;90254;-35
2023/04/11 09:40:59;;;;;;;4.10;1.60;;;11.30;99.90;;;;;;4883160;28;90235;-33
2023/04/11 09:43:25;;;;;;;2.65;1.45;;;10.90;99.90;;;;;;4883992;28;89837;-34
2023/04/11 09:46:10;;;;;;;3.55;1.85;;;10.60;99.90;;;;;;4883265;28;88788;-31
2023/04/11 09:48:37;;;;;;;2.00;1.13;;;10.30;99.90;;;;;;4882491;28;88322;-31
2023/04/11 09:51:06;;;;;;;4.18;2.05;;;10.40;99.90;;;;;;4883174;28;90194;-33
2023/04/11 09:53:36;;;;;;;2.35;1.60;;;10.50;99.90;;;;;;4883359;28;90302;-31
2023/04/11 09:56:03;;;;;;;2.17;1.40;;;10.70;99.90;;;;;;4883595;28;90139;-31
2023/04/11 09:58:31;;;;;;;8.77;3.30;;;10.80;99.90;;;;;;4881666;28;89794;-32
2023/04/11 10:00:58;;;;;;;3.67;2.30;;;11.20;99.90;;;;;;4865645;28;90023;-34
2023/04/11 10:03:25;;;;;;;3.75;1.52;;;11.30;99.90;;;;;;4881829;28;90397;-34
2023/04/11 10:05:55;;;;;;;4.30;1.80;;;11.60;99.90;;;;;;4881598;28;90047;-32
2023/04/11 10:08:31;;;;;;;2.75;1.48;;;11.30;99.90;;;;;;4883484;28;89672;-32
2023/04/11 10:10:58;;;;;;;4.78;2.15;;;11.10;99.90;;;;;;4883437;28;90481;-33
2023/04/11 10:13:38;;;;;;;4.30;1.70;;;10.80;99.90;;;;;;4883293;28;90595;-32
2023/04/11 10:16:08;;;;;;;4.05;1.40;;;10.60;99.90;;;;;;4882459;28;89851;-32
2023/04/11 10:18:57;;;;;;;2.17;1.52;;;10.70;99.90;;;;;;4883228;28;89188;-34
2023/04/11 10:21:29;;;;;;;5.68;1.85;;;11.30;99.90;;;;;;4868078;28;90341;-31
2023/04/11 10:24:09;;;;;;;3.25;1.58;;;11.30;99.90;;;;;;4883878;28;90776;-32
2023/04/11 10:26:46;;;;;;;4.53;2.03;;;11.30;99.90;;;;;;4871460;28;89285;-33
2023/04/11 10:29:27;;;;;;;8.57;1.85;;;11.40;99.90;;;;;;4882433;28;90405;-31
2023/04/11 10:32:11;;;;;;;3.35;2.60;;;11.30;99.90;;;;;;4883156;28;91527;-32
2023/04/11 10:34:38;;;;;;;5.15;2.03;;;11.10;99.90;;;;;;4871172;28;90099;-33
2023/04/11 10:37:08;;;;;;;5.28;2.47;;;11.10;99.90;;;;;;4883288;28;89028;-30
2023/04/11 10:40:08;;;;;;;6.00;2.30;;;11.00;99.90;;;;;;4883161;28;89515;-31
2023/04/11 10:42:39;;;;;;;2.55;1.80;;;10.70;99.90;;;;;;4882319;28;90331;-34
2023/04/11 10:45:25;;;;;;;5.03;2.33;;;10.50;99.90;;;;;;4883423;28;89839;-32
2023/04/11 10:47:50;;;;;;;3.92;1.80;;;10.50;99.90;;;;;;4873614;28;89905;-31
2023/04/11 10:50:38;;;;;;;2.15;1.65;;;10.20;99.90;;;;;;4882486;28;89354;-32
2023/04/11 10:53:07;;;;;;;;;;;10.20;99.90;;;;;;4883167;28;90577;-32
2023/04/11 10:55:45;;;;;;;7.82;2.25;;;10.00;99.90;;;;;;4883256;28;90476;-34
2023/04/11 10:58:15;;;;;;;4.28;1.83;;;10.00;99.90;;;;;;4882047;28;90395;-35
2023/04/11 11:00:50;;;;;;;3.50;1.65;;;9.90;99.90;;;;;;4882535;28;89530;-33
2023/04/11 11:03:16;;;;;;;4.75;1.88;;;10.00;99.90;;;;;;4882959;28;90293;-32
2023/04/11 11:05:42;;;;;;;5.35;2.38;;;10.00;99.90;;;;;;4889463;28;90221;-32
2023/04/11 11:08:08;;;;;;;14.95;3.55;;;9.90;99.90;;;;;;4881534;28;90990;-32
2023/04/11 11:10:45;;;;;;;7.80;2.38;;;9.80;99.90;;;;;;4883187;28;90035;-32
2023/04/11 11:13:15;;;;;;;6.38;2.45;;;9.90;99.90;;;;;;4881947;28;91083;-31
2023/04/11 11:15:46;;;;;;;5.07;3.08;;;10.20;99.90;;;;;;4880058;28;90025;-30
2023/04/11 11:18:14;;;;;;;10.57;3.20;;;10.60;99.90;;;;;;4881620;28;90836;-32
2023/04/11 11:20:40;;;;;;;4.70;2.22;;;10.80;99.90;;;;;;4881746;28;89689;-33
2023/04/11 11:23:08;;;;;;;2.42;1.95;;;10.90;99.90;;;;;;4881518;28;90567;-33
2023/04/11 11:25:35;;;;;;;4.82;2.53;;;11.20;99.90;;;;;;4881125;28;89724;-34
2023/04/11 11:28:08;;;;;;;6.50;3.30;;;11.20;99.90;;;;;;4881495;28;89537;-33
2023/04/11 11:30:35;;;;;;;10.52;3.08;;;11.10;99.90;;;;;;4881860;28;88980;-33
2023/04/11 11:33:19;;;;;;;5.63;2.40;;;10.90;99.90;;;;;;4881410;28;89885;-32
2023/04/11 11:35:58;;;;;;;5.70;2.45;;;11.00;99.90;;;;;;4881243;28;89422;-33
2023/04/11 11:38:26;;;;;;;4.20;2.33;;;11.10;99.90;;;;;;4881818;28;90307;-32
2023/04/11 11:40:52;;;;;;;5.17;2.00;;;11.00;99.90;;;;;;4879617;28;89823;-31
2023/04/11 11:43:18;;;;;;;7.68;2.20;;;10.80;99.90;;;;;;4882045;28;90097;-34
2023/04/11 11:45:44;;;;;;;7.40;2.55;;;10.80;99.90;;;;;;4880475;28;90530;-33
2023/04/11 11:48:23;;;;;;;3.50;2.15;;;10.80;99.90;;;;;;4881575;28;90464;-35
2023/04/11 11:50:56;;;;;;;3.92;2.70;;;10.80;99.90;;;;;;4869509;28;89556;-35
2023/04/11 11:53:22;;;;;;;6.38;2.08;;;10.80;99.90;;;;;;4881186;28;91384;-34
2023/04/11 11:55:48;;;;;;;5.22;1.83;;;10.80;99.90;;;;;;4880784;28;90012;-32
2023/04/11 11:58:15;;;;;;;4.72;2.10;;;10.70;99.90;;;;;;4880566;28;89886;-33
2023/04/11 12:00:40;;;;;;;5.20;2.65;;;10.90;99.90;;;;;;4881461;28;90058;-32
2023/04/11 12:03:10;;;;;;;3.70;1.67;;;11.10;99.90;;;;;;4881688;28;90823;-35
2023/04/11 12:05:36;;;;;;;4.00;1.65;;;11.00;99.90;;;;;;4913831;22;91272;-33
2023/04/11 12:08:07;;;;;;;2.17;1.98;;;11.00;99.90;;;;;;4881682;28;90679;-33
2023/04/11 12:10:44;;;;;;;6.15;2.25;;;10.90;99.90;;;;;;4881319;28;89359;-34
2023/04/11 12:13:21;;;;;;;7.55;1.95;;;10.90;99.90;;;;;;4881886;28;90389;-34
2023/04/11 12:15:53;;;;;;;9.55;3.03;;;10.70;99.90;;;;;;4880963;28;89718;-34
2023/04/11 12:18:20;;;;;;;3.50;1.73;;;10.50;99.90;;;;;;4881859;28;89618;-34
2023/04/11 12:20:46;;;;;;;4.60;2.03;;;10.40;99.90;;;;;;4879727;28;89074;-35
2023/04/11 12:23:11;;;;;;;10.20;3.13;;;10.50;99.90;;;;;;4874589;28;90986;-32
2023/04/11 12:25:37;;;;;;;4.10;1.70;;;10.40;99.90;;;;;;4874936;28;91518;-32
2023/04/11 12:28:03;;;;;;;5.63;1.35;;;10.50;99.90;;;;;;4884644;28;89570;-32
2023/04/11 12:30:28;;;;;;;7.68;2.90;;;10.50;99.90;;;;;;4884671;28;88327;-30
2023/04/11 12:32:54;;;;;;;5.28;2.20;;;10.50;99.90;;;;;;4884238;28;90190;-32
2023/04/11 12:35:20;;;;;;;2.70;1.90;;;10.50;99.90;;;;;;4883711;28;90193;-32
2023/04/11 12:37:46;;;;;;;3.30;2.03;;;10.50;99.90;;;;;;4883905;28;90412;-34
2023/04/11 12:40:12;;;;;;;6.35;2.90;;;10.60;99.90;;;;;;4884658;28;89067;-33
2023/04/11 12:42:38;;;;;;;4.53;1.88;;;10.50;99.90;;;;;;4884941;28;90450;-35
2023/04/11 12:45:06;;;;;;;3.20;1.95;;;10.50;99.90;;;;;;4872484;28;89778;-31
2023/04/11 12:47:32;;;;;;;8.50;1.80;;;10.50;99.90;;;;;;4867641;28;89609;-32
2023/04/11 12:49:57;;;;;;;3.30;1.33;;;10.60;99.90;;;;;;4875638;28;88751;-30
2023/04/11 12:52:24;;;;;;;2.33;1.45;;;10.70;99.90;;;;;;4873242;28;90372;-31
2023/04/11 12:54:49;;;;;;;4.50;1.98;;;10.70;99.90;;;;;;4883602;28;89494;-35
2023/04/11 12:57:15;;;;;;;7.13;2.25;;;10.80;99.90;;;;;;4884063;28;89572;-33